sensor_id;sensor_type;location;lat;lon;timestamp;P1;durP1;ratioP1;P2;durP2;ratioP2
10275;SDS011;5183;51.190;6.820;2023-11-21T00:02:19;24.17;;;16.63;;
10275;SDS011;5183;51.190;6.820;2023-11-21T00:04:47;30.03;;;17.73;;
10275;SDS011;5183;51.190;6.820;2023-11-21T00:07:15;26.53;;;17.80;;
10275;SDS011;5183;51.190;6.820;2023-11-21T00:09:42;26.03;;;17.77;;
10275;SDS011;5183;51.190;6.820;2023-11-21T00:12:09;31.20;;;18.77;;
10275;SDS011;5183;51.190;6.820;2023-11-21T00:14:36;30.33;;;18.57;;
10275;SDS011;5183;51.190;6.820;2023-11-21T00:17:03;28.43;;;18.03;;
10275;SDS011;5183;51.190;6.820;2023-11-21T00:19:30;28.83;;;19.23;;
10275;SDS011;5183;51.190;6.820;2023-11-21T00:21:57;31.40;;;19.53;;
10275;SDS011;5183;51.190;6.820;2023-11-21T00:24:25;31.50;;;19.77;;
10275;SDS011;5183;51.190;6.820;2023-11-21T00:26:52;33.63;;;20.20;;
10275;SDS011;5183;51.190;6.820;2023-11-21T00:29:19;31.37;;;19.87;;
10275;SDS011;5183;51.190;6.820;2023-11-21T00:31:46;28.67;;;19.53;;
10275;SDS011;5183;51.190;6.820;2023-11-21T00:34:13;30.27;;;18.90;;
10275;SDS011;5183;51.190;6.820;2023-11-21T00:36:40;29.93;;;19.30;;
10275;SDS011;5183;51.190;6.820;2023-11-21T00:39:07;28.13;;;18.00;;
10275;SDS011;5183;51.190;6.820;2023-11-21T00:41:35;40.53;;;19.07;;
10275;SDS011;5183;51.190;6.820;2023-11-21T00:44:02;30.60;;;17.47;;
10275;SDS011;5183;51.190;6.820;2023-11-21T00:46:29;28.87;;;18.27;;
10275;SDS011;5183;51.190;6.820;2023-11-21T00:48:57;31.23;;;19.23;;
10275;SDS011;5183;51.190;6.820;2023-11-21T00:51:24;35.67;;;19.07;;
10275;SDS011;5183;51.190;6.820;2023-11-21T00:53:51;35.63;;;20.60;;
10275;SDS011;5183;51.190;6.820;2023-11-21T00:56:18;33.03;;;19.17;;
10275;SDS011;5183;51.190;6.820;2023-11-21T00:58:46;38.03;;;20.20;;
10275;SDS011;5183;51.190;6.820;2023-11-21T01:01:15;34.60;;;19.93;;
10275;SDS011;5183;51.190;6.820;2023-11-21T01:03:41;36.10;;;19.07;;
10275;SDS011;5183;51.190;6.820;2023-11-21T01:06:08;37.50;;;19.07;;
10275;SDS011;5183;51.190;6.820;2023-11-21T01:08:35;32.03;;;19.00;;
10275;SDS011;5183;51.190;6.820;2023-11-21T01:11:02;38.27;;;19.63;;
10275;SDS011;5183;51.190;6.820;2023-11-21T01:13:29;37.50;;;18.73;;
10275;SDS011;5183;51.190;6.820;2023-11-21T01:15:58;36.27;;;18.30;;
10275;SDS011;5183;51.190;6.820;2023-11-21T01:18:24;35.40;;;18.20;;
10275;SDS011;5183;51.190;6.820;2023-11-21T01:20:51;32.37;;;18.57;;
10275;SDS011;5183;51.190;6.820;2023-11-21T01:23:19;33.57;;;17.83;;
10275;SDS011;5183;51.190;6.820;2023-11-21T01:25:45;30.37;;;18.43;;
10275;SDS011;5183;51.190;6.820;2023-11-21T01:28:12;30.47;;;17.67;;
10275;SDS011;5183;51.190;6.820;2023-11-21T01:30:39;33.50;;;17.13;;
10275;SDS011;5183;51.190;6.820;2023-11-21T01:33:07;33.90;;;18.03;;
10275;SDS011;5183;51.190;6.820;2023-11-21T01:35:34;34.70;;;17.93;;
10275;SDS011;5183;51.190;6.820;2023-11-21T01:38:01;31.40;;;17.53;;
10275;SDS011;5183;51.190;6.820;2023-11-21T01:40:28;36.70;;;18.17;;
10275;SDS011;5183;51.190;6.820;2023-11-21T01:42:55;30.57;;;17.83;;
10275;SDS011;5183;51.190;6.820;2023-11-21T01:45:23;34.03;;;18.63;;
10275;SDS011;5183;51.190;6.820;2023-11-21T01:47:51;34.57;;;19.07;;
10275;SDS011;5183;51.190;6.820;2023-11-21T01:50:19;38.43;;;19.57;;
10275;SDS011;5183;51.190;6.820;2023-11-21T01:52:47;36.00;;;18.73;;
10275;SDS011;5183;51.190;6.820;2023-11-21T01:55:15;39.43;;;19.83;;
10275;SDS011;5183;51.190;6.820;2023-11-21T01:57:45;35.87;;;18.80;;
10275;SDS011;5183;51.190;6.820;2023-11-21T02:00:12;40.43;;;20.13;;
10275;SDS011;5183;51.190;6.820;2023-11-21T02:02:44;41.63;;;20.27;;
10275;SDS011;5183;51.190;6.820;2023-11-21T02:05:12;36.40;;;20.00;;
10275;SDS011;5183;51.190;6.820;2023-11-21T02:07:43;44.40;;;20.07;;
10275;SDS011;5183;51.190;6.820;2023-11-21T02:10:13;38.77;;;19.77;;
10275;SDS011;5183;51.190;6.820;2023-11-21T02:12:40;37.00;;;20.70;;
10275;SDS011;5183;51.190;6.820;2023-11-21T02:15:08;40.13;;;19.57;;
10275;SDS011;5183;51.190;6.820;2023-11-21T02:17:41;43.90;;;20.20;;
10275;SDS011;5183;51.190;6.820;2023-11-21T02:20:09;37.70;;;19.67;;
10275;SDS011;5183;51.190;6.820;2023-11-21T02:22:40;39.77;;;20.10;;
10275;SDS011;5183;51.190;6.820;2023-11-21T02:25:09;38.70;;;20.17;;
10275;SDS011;5183;51.190;6.820;2023-11-21T02:27:36;42.63;;;20.23;;
10275;SDS011;5183;51.190;6.820;2023-11-21T02:30:03;34.97;;;19.97;;
10275;SDS011;5183;51.190;6.820;2023-11-21T02:32:32;46.13;;;21.23;;
10275;SDS011;5183;51.190;6.820;2023-11-21T02:34:59;38.50;;;19.83;;
10275;SDS011;5183;51.190;6.820;2023-11-21T02:37:32;38.70;;;19.70;;
10275;SDS011;5183;51.190;6.820;2023-11-21T02:40:00;46.03;;;21.10;;
10275;SDS011;5183;51.190;6.820;2023-11-21T02:42:30;38.57;;;18.90;;
10275;SDS011;5183;51.190;6.820;2023-11-21T02:44:57;41.13;;;19.17;;
10275;SDS011;5183;51.190;6.820;2023-11-21T02:47:24;42.40;;;20.50;;
10275;SDS011;5183;51.190;6.820;2023-11-21T02:49:50;34.90;;;20.63;;
10275;SDS011;5183;51.190;6.820;2023-11-21T02:52:18;40.03;;;20.47;;
10275;SDS011;5183;51.190;6.820;2023-11-21T02:54:45;41.87;;;21.20;;
10275;SDS011;5183;51.190;6.820;2023-11-21T02:57:12;40.80;;;20.27;;
10275;SDS011;5183;51.190;6.820;2023-11-21T02:59:40;38.30;;;19.53;;
10275;SDS011;5183;51.190;6.820;2023-11-21T03:02:07;38.33;;;19.83;;
10275;SDS011;5183;51.190;6.820;2023-11-21T03:04:34;35.30;;;19.37;;
10275;SDS011;5183;51.190;6.820;2023-11-21T03:07:01;35.23;;;19.77;;
10275;SDS011;5183;51.190;6.820;2023-11-21T03:09:28;41.10;;;19.43;;
10275;SDS011;5183;51.190;6.820;2023-11-21T03:11:55;37.13;;;19.80;;
10275;SDS011;5183;51.190;6.820;2023-11-21T03:14:22;34.40;;;17.77;;
10275;SDS011;5183;51.190;6.820;2023-11-21T03:16:50;36.27;;;18.37;;
10275;SDS011;5183;51.190;6.820;2023-11-21T03:19:17;41.53;;;19.37;;
10275;SDS011;5183;51.190;6.820;2023-11-21T03:21:45;37.87;;;19.80;;
10275;SDS011;5183;51.190;6.820;2023-11-21T03:24:12;33.87;;;19.37;;
10275;SDS011;5183;51.190;6.820;2023-11-21T03:26:39;33.80;;;18.30;;
10275;SDS011;5183;51.190;6.820;2023-11-21T03:29:05;35.60;;;20.10;;
10275;SDS011;5183;51.190;6.820;2023-11-21T03:31:32;43.90;;;20.53;;
10275;SDS011;5183;51.190;6.820;2023-11-21T03:34:00;38.17;;;21.27;;
10275;SDS011;5183;51.190;6.820;2023-11-21T03:36:28;42.77;;;21.70;;
10275;SDS011;5183;51.190;6.820;2023-11-21T03:38:55;39.63;;;21.57;;
10275;SDS011;5183;51.190;6.820;2023-11-21T03:41:22;41.00;;;21.67;;
10275;SDS011;5183;51.190;6.820;2023-11-21T03:43:48;41.07;;;21.80;;
10275;SDS011;5183;51.190;6.820;2023-11-21T03:46:15;39.67;;;22.10;;
10275;SDS011;5183;51.190;6.820;2023-11-21T03:48:42;41.47;;;22.53;;
10275;SDS011;5183;51.190;6.820;2023-11-21T03:51:10;40.03;;;22.73;;
10275;SDS011;5183;51.190;6.820;2023-11-21T03:53:37;43.40;;;23.47;;
10275;SDS011;5183;51.190;6.820;2023-11-21T03:56:04;43.20;;;23.97;;
10275;SDS011;5183;51.190;6.820;2023-11-21T03:58:32;41.20;;;23.93;;
10275;SDS011;5183;51.190;6.820;2023-11-21T04:00:59;44.23;;;23.73;;
10275;SDS011;5183;51.190;6.820;2023-11-21T04:03:26;42.37;;;23.17;;
10275;SDS011;5183;51.190;6.820;2023-11-21T04:05:53;45.10;;;25.57;;
10275;SDS011;5183;51.190;6.820;2023-11-21T04:08:21;41.53;;;25.27;;
10275;SDS011;5183;51.190;6.820;2023-11-21T04:10:48;49.93;;;27.23;;
10275;SDS011;5183;51.190;6.820;2023-11-21T04:13:15;47.60;;;25.80;;
10275;SDS011;5183;51.190;6.820;2023-11-21T04:15:42;51.07;;;26.77;;
10275;SDS011;5183;51.190;6.820;2023-11-21T04:18:09;52.13;;;27.77;;
10275;SDS011;5183;51.190;6.820;2023-11-21T04:20:36;56.43;;;31.53;;
10275;SDS011;5183;51.190;6.820;2023-11-21T04:23:03;48.47;;;27.33;;
10275;SDS011;5183;51.190;6.820;2023-11-21T04:25:31;49.87;;;25.87;;
10275;SDS011;5183;51.190;6.820;2023-11-21T04:27:58;45.17;;;26.20;;
10275;SDS011;5183;51.190;6.820;2023-11-21T04:30:24;40.77;;;24.97;;
10275;SDS011;5183;51.190;6.820;2023-11-21T04:32:51;47.70;;;24.23;;
10275;SDS011;5183;51.190;6.820;2023-11-21T04:35:18;45.97;;;24.83;;
10275;SDS011;5183;51.190;6.820;2023-11-21T04:37:45;48.70;;;25.97;;
10275;SDS011;5183;51.190;6.820;2023-11-21T04:40:12;43.23;;;24.33;;
10275;SDS011;5183;51.190;6.820;2023-11-21T04:42:40;51.00;;;24.97;;
10275;SDS011;5183;51.190;6.820;2023-11-21T04:45:08;45.57;;;24.80;;
10275;SDS011;5183;51.190;6.820;2023-11-21T04:47:36;50.53;;;25.33;;
10275;SDS011;5183;51.190;6.820;2023-11-21T04:50:03;40.83;;;24.47;;
10275;SDS011;5183;51.190;6.820;2023-11-21T04:52:31;43.23;;;24.73;;
10275;SDS011;5183;51.190;6.820;2023-11-21T04:54:59;45.70;;;25.80;;
10275;SDS011;5183;51.190;6.820;2023-11-21T04:57:26;43.60;;;24.90;;
10275;SDS011;5183;51.190;6.820;2023-11-21T04:59:56;43.77;;;25.50;;
10275;SDS011;5183;51.190;6.820;2023-11-21T05:02:23;47.50;;;26.03;;
10275;SDS011;5183;51.190;6.820;2023-11-21T05:04:50;44.40;;;25.43;;
10275;SDS011;5183;51.190;6.820;2023-11-21T05:07:18;45.73;;;26.47;;
10275;SDS011;5183;51.190;6.820;2023-11-21T05:09:44;45.83;;;25.50;;
10275;SDS011;5183;51.190;6.820;2023-11-21T05:12:11;50.80;;;27.20;;
10275;SDS011;5183;51.190;6.820;2023-11-21T05:14:39;50.50;;;27.30;;
10275;SDS011;5183;51.190;6.820;2023-11-21T05:17:08;55.40;;;29.20;;
10275;SDS011;5183;51.190;6.820;2023-11-21T05:19:35;52.37;;;30.43;;
10275;SDS011;5183;51.190;6.820;2023-11-21T05:22:02;54.63;;;29.23;;
10275;SDS011;5183;51.190;6.820;2023-11-21T05:24:30;52.50;;;29.50;;
10275;SDS011;5183;51.190;6.820;2023-11-21T05:26:57;49.63;;;29.60;;
10275;SDS011;5183;51.190;6.820;2023-11-21T05:29:24;49.20;;;28.73;;
10275;SDS011;5183;51.190;6.820;2023-11-21T05:31:52;47.70;;;26.40;;
10275;SDS011;5183;51.190;6.820;2023-11-21T05:34:20;56.40;;;29.13;;
10275;SDS011;5183;51.190;6.820;2023-11-21T05:36:49;53.67;;;28.67;;
10275;SDS011;5183;51.190;6.820;2023-11-21T05:39:16;58.87;;;29.40;;
10275;SDS011;5183;51.190;6.820;2023-11-21T05:41:43;53.80;;;28.30;;
10275;SDS011;5183;51.190;6.820;2023-11-21T05:44:11;54.90;;;29.13;;
10275;SDS011;5183;51.190;6.820;2023-11-21T05:46:39;63.70;;;31.13;;
10275;SDS011;5183;51.190;6.820;2023-11-21T05:49:08;57.20;;;29.83;;
10275;SDS011;5183;51.190;6.820;2023-11-21T05:51:36;52.30;;;27.97;;
10275;SDS011;5183;51.190;6.820;2023-11-21T05:54:03;56.30;;;29.60;;
10275;SDS011;5183;51.190;6.820;2023-11-21T05:56:30;51.80;;;27.10;;
10275;SDS011;5183;51.190;6.820;2023-11-21T05:58:57;53.73;;;28.77;;
10275;SDS011;5183;51.190;6.820;2023-11-21T06:01:24;56.40;;;30.80;;
10275;SDS011;5183;51.190;6.820;2023-11-21T06:03:53;60.13;;;29.67;;
10275;SDS011;5183;51.190;6.820;2023-11-21T06:06:20;62.73;;;30.50;;
10275;SDS011;5183;51.190;6.820;2023-11-21T06:08:48;72.23;;;32.17;;
10275;SDS011;5183;51.190;6.820;2023-11-21T06:11:15;64.73;;;30.00;;
10275;SDS011;5183;51.190;6.820;2023-11-21T06:13:42;61.60;;;29.67;;
10275;SDS011;5183;51.190;6.820;2023-11-21T06:16:09;60.17;;;29.27;;
10275;SDS011;5183;51.190;6.820;2023-11-21T06:18:38;64.87;;;31.10;;
10275;SDS011;5183;51.190;6.820;2023-11-21T06:21:05;60.63;;;30.90;;
10275;SDS011;5183;51.190;6.820;2023-11-21T06:23:35;63.10;;;29.83;;
10275;SDS011;5183;51.190;6.820;2023-11-21T06:26:04;60.53;;;31.10;;
10275;SDS011;5183;51.190;6.820;2023-11-21T06:28:31;69.53;;;32.57;;
10275;SDS011;5183;51.190;6.820;2023-11-21T06:30:58;70.57;;;32.00;;
10275;SDS011;5183;51.190;6.820;2023-11-21T06:33:30;66.27;;;30.67;;
10275;SDS011;5183;51.190;6.820;2023-11-21T06:35:56;62.37;;;29.60;;
10275;SDS011;5183;51.190;6.820;2023-11-21T06:38:24;73.30;;;34.03;;
10275;SDS011;5183;51.190;6.820;2023-11-21T06:40:53;69.77;;;31.20;;
10275;SDS011;5183;51.190;6.820;2023-11-21T06:43:21;66.80;;;32.20;;
10275;SDS011;5183;51.190;6.820;2023-11-21T06:45:48;72.57;;;32.63;;
10275;SDS011;5183;51.190;6.820;2023-11-21T06:48:15;73.47;;;32.17;;
10275;SDS011;5183;51.190;6.820;2023-11-21T06:50:42;63.97;;;30.40;;
10275;SDS011;5183;51.190;6.820;2023-11-21T06:53:09;77.63;;;33.87;;
10275;SDS011;5183;51.190;6.820;2023-11-21T06:55:36;79.77;;;34.30;;
10275;SDS011;5183;51.190;6.820;2023-11-21T06:58:03;90.03;;;35.37;;
10275;SDS011;5183;51.190;6.820;2023-11-21T07:00:31;89.00;;;34.63;;
10275;SDS011;5183;51.190;6.820;2023-11-21T07:02:58;87.67;;;34.73;;
10275;SDS011;5183;51.190;6.820;2023-11-21T07:05:25;80.63;;;32.30;;
10275;SDS011;5183;51.190;6.820;2023-11-21T07:07:52;90.27;;;34.07;;
10275;SDS011;5183;51.190;6.820;2023-11-21T07:10:19;89.27;;;33.93;;
10275;SDS011;5183;51.190;6.820;2023-11-21T07:12:46;89.53;;;33.87;;
10275;SDS011;5183;51.190;6.820;2023-11-21T07:15:12;88.43;;;32.60;;
10275;SDS011;5183;51.190;6.820;2023-11-21T07:17:42;89.77;;;33.97;;
10275;SDS011;5183;51.190;6.820;2023-11-21T07:20:09;89.43;;;32.80;;
10275;SDS011;5183;51.190;6.820;2023-11-21T07:22:37;83.07;;;31.97;;
10275;SDS011;5183;51.190;6.820;2023-11-21T07:25:04;77.73;;;31.23;;
10275;SDS011;5183;51.190;6.820;2023-11-21T07:27:34;71.13;;;30.63;;
10275;SDS011;5183;51.190;6.820;2023-11-21T07:30:02;76.97;;;30.30;;
10275;SDS011;5183;51.190;6.820;2023-11-21T07:32:31;79.50;;;32.17;;
10275;SDS011;5183;51.190;6.820;2023-11-21T07:34:59;71.13;;;29.07;;
10275;SDS011;5183;51.190;6.820;2023-11-21T07:37:26;69.40;;;28.23;;
10275;SDS011;5183;51.190;6.820;2023-11-21T07:39:54;71.77;;;30.73;;
10275;SDS011;5183;51.190;6.820;2023-11-21T07:42:21;65.00;;;28.43;;
10275;SDS011;5183;51.190;6.820;2023-11-21T07:44:51;78.50;;;30.30;;
10275;SDS011;5183;51.190;6.820;2023-11-21T07:47:18;69.83;;;29.57;;
10275;SDS011;5183;51.190;6.820;2023-11-21T07:49:45;76.33;;;30.10;;
10275;SDS011;5183;51.190;6.820;2023-11-21T07:52:13;75.87;;;31.10;;
10275;SDS011;5183;51.190;6.820;2023-11-21T07:54:41;80.17;;;30.93;;
10275;SDS011;5183;51.190;6.820;2023-11-21T07:57:08;74.13;;;29.90;;
10275;SDS011;5183;51.190;6.820;2023-11-21T07:59:38;70.00;;;30.20;;
10275;SDS011;5183;51.190;6.820;2023-11-21T08:02:05;62.80;;;27.90;;
10275;SDS011;5183;51.190;6.820;2023-11-21T08:04:32;72.87;;;30.10;;
10275;SDS011;5183;51.190;6.820;2023-11-21T08:07:00;65.07;;;29.20;;
10275;SDS011;5183;51.190;6.820;2023-11-21T08:09:30;72.50;;;29.63;;
10275;SDS011;5183;51.190;6.820;2023-11-21T08:11:58;64.90;;;30.57;;
10275;SDS011;5183;51.190;6.820;2023-11-21T08:14:25;70.40;;;32.17;;
10275;SDS011;5183;51.190;6.820;2023-11-21T08:16:52;74.10;;;33.53;;
10275;SDS011;5183;51.190;6.820;2023-11-21T08:19:22;70.60;;;32.47;;
10275;SDS011;5183;51.190;6.820;2023-11-21T08:21:50;74.77;;;34.70;;
10275;SDS011;5183;51.190;6.820;2023-11-21T08:24:19;85.50;;;34.37;;
10275;SDS011;5183;51.190;6.820;2023-11-21T08:26:48;76.43;;;35.73;;
10275;SDS011;5183;51.190;6.820;2023-11-21T08:29:14;83.60;;;37.33;;
10275;SDS011;5183;51.190;6.820;2023-11-21T08:31:42;81.87;;;36.47;;
10275;SDS011;5183;51.190;6.820;2023-11-21T08:34:09;75.67;;;35.03;;
10275;SDS011;5183;51.190;6.820;2023-11-21T08:36:40;79.80;;;36.73;;
10275;SDS011;5183;51.190;6.820;2023-11-21T08:39:08;83.33;;;37.17;;
10275;SDS011;5183;51.190;6.820;2023-11-21T08:41:35;83.10;;;37.10;;
10275;SDS011;5183;51.190;6.820;2023-11-21T08:44:04;72.80;;;33.33;;
10275;SDS011;5183;51.190;6.820;2023-11-21T08:46:32;75.47;;;36.77;;
10275;SDS011;5183;51.190;6.820;2023-11-21T08:49:00;91.80;;;37.83;;
10275;SDS011;5183;51.190;6.820;2023-11-21T08:51:27;79.40;;;37.60;;
10275;SDS011;5183;51.190;6.820;2023-11-21T08:53:54;86.60;;;38.80;;
10275;SDS011;5183;51.190;6.820;2023-11-21T08:56:24;73.27;;;36.43;;
10275;SDS011;5183;51.190;6.820;2023-11-21T08:58:51;76.13;;;36.17;;
10275;SDS011;5183;51.190;6.820;2023-11-21T09:01:19;78.23;;;37.37;;
10275;SDS011;5183;51.190;6.820;2023-11-21T09:03:46;77.13;;;36.20;;
10275;SDS011;5183;51.190;6.820;2023-11-21T09:06:15;67.30;;;34.70;;
10275;SDS011;5183;51.190;6.820;2023-11-21T09:08:42;69.53;;;34.73;;
10275;SDS011;5183;51.190;6.820;2023-11-21T09:11:09;74.27;;;35.70;;
10275;SDS011;5183;51.190;6.820;2023-11-21T09:13:35;68.77;;;33.43;;
10275;SDS011;5183;51.190;6.820;2023-11-21T09:16:02;69.23;;;32.30;;
10275;SDS011;5183;51.190;6.820;2023-11-21T09:18:32;59.80;;;29.63;;
10275;SDS011;5183;51.190;6.820;2023-11-21T09:20:59;62.40;;;30.90;;
10275;SDS011;5183;51.190;6.820;2023-11-21T09:23:26;52.63;;;27.13;;
10275;SDS011;5183;51.190;6.820;2023-11-21T09:25:52;55.67;;;29.77;;
10275;SDS011;5183;51.190;6.820;2023-11-21T09:28:22;53.63;;;28.53;;
10275;SDS011;5183;51.190;6.820;2023-11-21T09:30:49;49.10;;;27.63;;
10275;SDS011;5183;51.190;6.820;2023-11-21T09:33:19;54.00;;;29.17;;
10275;SDS011;5183;51.190;6.820;2023-11-21T09:35:48;57.97;;;30.13;;
10275;SDS011;5183;51.190;6.820;2023-11-21T09:38:16;51.73;;;28.43;;
10275;SDS011;5183;51.190;6.820;2023-11-21T09:40:42;48.60;;;26.30;;
10275;SDS011;5183;51.190;6.820;2023-11-21T09:43:13;54.43;;;28.60;;
10275;SDS011;5183;51.190;6.820;2023-11-21T09:45:44;50.23;;;27.90;;
10275;SDS011;5183;51.190;6.820;2023-11-21T09:48:13;54.17;;;27.97;;
10275;SDS011;5183;51.190;6.820;2023-11-21T09:50:42;48.13;;;28.93;;
10275;SDS011;5183;51.190;6.820;2023-11-21T09:53:13;54.73;;;28.63;;
10275;SDS011;5183;51.190;6.820;2023-11-21T09:55:43;53.43;;;29.60;;
10275;SDS011;5183;51.190;6.820;2023-11-21T09:58:11;54.47;;;28.93;;
10275;SDS011;5183;51.190;6.820;2023-11-21T10:00:39;58.63;;;29.87;;
10275;SDS011;5183;51.190;6.820;2023-11-21T10:03:07;66.23;;;31.73;;
10275;SDS011;5183;51.190;6.820;2023-11-21T10:05:34;59.00;;;31.70;;
10275;SDS011;5183;51.190;6.820;2023-11-21T10:08:01;51.53;;;30.30;;
10275;SDS011;5183;51.190;6.820;2023-11-21T10:10:32;54.27;;;29.33;;
10275;SDS011;5183;51.190;6.820;2023-11-21T10:13:01;55.87;;;30.57;;
10275;SDS011;5183;51.190;6.820;2023-11-21T10:15:31;54.87;;;29.43;;
10275;SDS011;5183;51.190;6.820;2023-11-21T10:18:01;60.90;;;31.17;;
10275;SDS011;5183;51.190;6.820;2023-11-21T10:20:30;54.20;;;29.57;;
10275;SDS011;5183;51.190;6.820;2023-11-21T10:22:59;66.57;;;30.70;;
10275;SDS011;5183;51.190;6.820;2023-11-21T10:25:27;61.03;;;32.53;;
10275;SDS011;5183;51.190;6.820;2023-11-21T10:27:57;56.83;;;30.80;;
10275;SDS011;5183;51.190;6.820;2023-11-21T10:30:27;62.07;;;30.83;;
10275;SDS011;5183;51.190;6.820;2023-11-21T10:32:58;58.43;;;29.10;;
10275;SDS011;5183;51.190;6.820;2023-11-21T10:35:33;55.33;;;30.10;;
10275;SDS011;5183;51.190;6.820;2023-11-21T10:38:05;49.37;;;27.93;;
10275;SDS011;5183;51.190;6.820;2023-11-21T10:40:37;59.20;;;29.17;;
10275;SDS011;5183;51.190;6.820;2023-11-21T10:43:08;51.83;;;28.33;;
10275;SDS011;5183;51.190;6.820;2023-11-21T10:45:36;55.03;;;30.07;;
10275;SDS011;5183;51.190;6.820;2023-11-21T10:48:05;50.63;;;27.53;;
10275;SDS011;5183;51.190;6.820;2023-11-21T10:50:34;56.13;;;28.47;;
10275;SDS011;5183;51.190;6.820;2023-11-21T10:53:01;49.87;;;27.67;;
10275;SDS011;5183;51.190;6.820;2023-11-21T10:55:29;44.43;;;26.07;;
10275;SDS011;5183;51.190;6.820;2023-11-21T10:57:58;51.13;;;26.23;;
10275;SDS011;5183;51.190;6.820;2023-11-21T11:00:28;51.93;;;27.47;;
10275;SDS011;5183;51.190;6.820;2023-11-21T11:02:55;49.07;;;28.37;;
10275;SDS011;5183;51.190;6.820;2023-11-21T11:05:24;43.87;;;25.93;;
10275;SDS011;5183;51.190;6.820;2023-11-21T11:07:56;51.00;;;27.87;;
10275;SDS011;5183;51.190;6.820;2023-11-21T11:10:28;51.60;;;27.77;;
10275;SDS011;5183;51.190;6.820;2023-11-21T11:12:55;48.03;;;25.83;;
10275;SDS011;5183;51.190;6.820;2023-11-21T11:15:23;42.90;;;24.30;;
10275;SDS011;5183;51.190;6.820;2023-11-21T11:17:53;48.10;;;25.70;;
10275;SDS011;5183;51.190;6.820;2023-11-21T11:20:23;53.87;;;27.70;;
10275;SDS011;5183;51.190;6.820;2023-11-21T11:22:56;49.70;;;26.73;;
10275;SDS011;5183;51.190;6.820;2023-11-21T11:25:52;48.93;;;27.37;;
10275;SDS011;5183;51.190;6.820;2023-11-21T11:28:32;55.47;;;31.37;;
10275;SDS011;5183;51.190;6.820;2023-11-21T11:31:05;63.97;;;33.83;;
10275;SDS011;5183;51.190;6.820;2023-11-21T11:33:45;61.60;;;35.90;;
10275;SDS011;5183;51.190;6.820;2023-11-21T11:36:17;63.77;;;36.80;;
10275;SDS011;5183;51.190;6.820;2023-11-21T11:38:51;77.63;;;39.17;;
10275;SDS011;5183;51.190;6.820;2023-11-21T11:41:25;78.33;;;40.50;;
10275;SDS011;5183;51.190;6.820;2023-11-21T11:43:53;78.47;;;41.53;;
10275;SDS011;5183;51.190;6.820;2023-11-21T11:46:20;73.20;;;39.93;;
10275;SDS011;5183;51.190;6.820;2023-11-21T11:49:08;83.80;;;42.57;;
10275;SDS011;5183;51.190;6.820;2023-11-21T11:51:35;79.20;;;42.13;;
10275;SDS011;5183;51.190;6.820;2023-11-21T11:54:02;90.83;;;44.87;;
10275;SDS011;5183;51.190;6.820;2023-11-21T11:56:32;76.13;;;43.03;;
10275;SDS011;5183;51.190;6.820;2023-11-21T11:59:01;82.00;;;43.07;;
10275;SDS011;5183;51.190;6.820;2023-11-21T12:01:29;81.20;;;44.27;;
10275;SDS011;5183;51.190;6.820;2023-11-21T12:07:00;83.93;;;42.87;;
10275;SDS011;5183;51.190;6.820;2023-11-21T12:09:28;83.63;;;42.97;;
10275;SDS011;5183;51.190;6.820;2023-11-21T12:11:57;74.43;;;39.33;;
10275;SDS011;5183;51.190;6.820;2023-11-21T12:14:25;72.60;;;38.13;;
10275;SDS011;5183;51.190;6.820;2023-11-21T12:16:52;67.90;;;38.63;;
10275;SDS011;5183;51.190;6.820;2023-11-21T12:19:20;70.40;;;39.10;;
10275;SDS011;5183;51.190;6.820;2023-11-21T12:21:49;60.60;;;35.63;;
10275;SDS011;5183;51.190;6.820;2023-11-21T12:24:17;63.30;;;34.97;;
10275;SDS011;5183;51.190;6.820;2023-11-21T12:26:44;68.40;;;35.50;;
10275;SDS011;5183;51.190;6.820;2023-11-21T12:29:11;70.13;;;37.77;;
10275;SDS011;5183;51.190;6.820;2023-11-21T12:31:38;72.97;;;38.37;;
10275;SDS011;5183;51.190;6.820;2023-11-21T12:34:06;72.63;;;35.53;;
10275;SDS011;5183;51.190;6.820;2023-11-21T12:36:36;78.27;;;35.40;;
10275;SDS011;5183;51.190;6.820;2023-11-21T12:39:04;63.23;;;32.63;;
10275;SDS011;5183;51.190;6.820;2023-11-21T12:41:34;66.07;;;33.43;;
10275;SDS011;5183;51.190;6.820;2023-11-21T12:44:01;64.30;;;34.13;;
10275;SDS011;5183;51.190;6.820;2023-11-21T12:46:28;69.80;;;36.13;;
10275;SDS011;5183;51.190;6.820;2023-11-21T12:48:58;69.97;;;36.07;;
10275;SDS011;5183;51.190;6.820;2023-11-21T12:51:25;66.77;;;33.77;;
10275;SDS011;5183;51.190;6.820;2023-11-21T12:53:52;64.23;;;34.77;;
10275;SDS011;5183;51.190;6.820;2023-11-21T12:56:22;64.47;;;32.83;;
10275;SDS011;5183;51.190;6.820;2023-11-21T12:58:49;61.00;;;31.33;;
10275;SDS011;5183;51.190;6.820;2023-11-21T13:01:17;61.13;;;31.10;;
10275;SDS011;5183;51.190;6.820;2023-11-21T13:03:47;61.70;;;30.33;;
10275;SDS011;5183;51.190;6.820;2023-11-21T13:06:16;49.17;;;27.00;;
10275;SDS011;5183;51.190;6.820;2023-11-21T13:08:44;55.40;;;28.83;;
10275;SDS011;5183;51.190;6.820;2023-11-21T13:11:11;56.20;;;29.70;;
10275;SDS011;5183;51.190;6.820;2023-11-21T13:13:41;49.17;;;28.20;;
10275;SDS011;5183;51.190;6.820;2023-11-21T13:16:09;59.20;;;34.63;;
10275;SDS011;5183;51.190;6.820;2023-11-21T13:18:36;63.77;;;32.47;;
10275;SDS011;5183;51.190;6.820;2023-11-21T13:21:05;70.20;;;36.60;;
10275;SDS011;5183;51.190;6.820;2023-11-21T13:23:38;74.37;;;37.47;;
10275;SDS011;5183;51.190;6.820;2023-11-21T13:26:06;76.63;;;39.53;;
10275;SDS011;5183;51.190;6.820;2023-11-21T13:28:33;75.10;;;40.53;;
10275;SDS011;5183;51.190;6.820;2023-11-21T13:31:04;84.43;;;41.17;;
10275;SDS011;5183;51.190;6.820;2023-11-21T13:33:45;78.33;;;39.07;;
10275;SDS011;5183;51.190;6.820;2023-11-21T13:36:20;74.73;;;39.40;;
10275;SDS011;5183;51.190;6.820;2023-11-21T13:38:48;71.57;;;37.17;;
10275;SDS011;5183;51.190;6.820;2023-11-21T13:41:15;55.43;;;32.27;;
10275;SDS011;5183;51.190;6.820;2023-11-21T13:43:43;71.50;;;35.43;;
10275;SDS011;5183;51.190;6.820;2023-11-21T13:46:16;64.30;;;35.00;;
10275;SDS011;5183;51.190;6.820;2023-11-21T13:48:46;67.57;;;35.83;;
10275;SDS011;5183;51.190;6.820;2023-11-21T13:51:16;61.40;;;33.17;;
10275;SDS011;5183;51.190;6.820;2023-11-21T13:53:43;66.60;;;35.07;;
10275;SDS011;5183;51.190;6.820;2023-11-21T13:56:12;60.70;;;34.03;;
10275;SDS011;5183;51.190;6.820;2023-11-21T13:58:43;59.93;;;34.07;;
10275;SDS011;5183;51.190;6.820;2023-11-21T14:01:12;67.13;;;36.23;;
10275;SDS011;5183;51.190;6.820;2023-11-21T14:03:59;59.00;;;34.73;;
10275;SDS011;5183;51.190;6.820;2023-11-21T14:06:34;72.67;;;37.50;;
10275;SDS011;5183;51.190;6.820;2023-11-21T14:09:11;70.70;;;36.50;;
10275;SDS011;5183;51.190;6.820;2023-11-21T14:11:43;64.07;;;36.10;;
10275;SDS011;5183;51.190;6.820;2023-11-21T14:14:10;70.07;;;35.60;;
10275;SDS011;5183;51.190;6.820;2023-11-21T14:16:37;74.33;;;36.83;;
10275;SDS011;5183;51.190;6.820;2023-11-21T14:19:05;67.53;;;36.57;;
10275;SDS011;5183;51.190;6.820;2023-11-21T14:21:40;68.73;;;34.90;;
10275;SDS011;5183;51.190;6.820;2023-11-21T14:24:08;68.23;;;35.40;;
10275;SDS011;5183;51.190;6.820;2023-11-21T14:26:37;69.00;;;34.87;;
10275;SDS011;5183;51.190;6.820;2023-11-21T14:29:05;63.67;;;35.20;;
10275;SDS011;5183;51.190;6.820;2023-11-21T14:31:33;61.53;;;33.07;;
10275;SDS011;5183;51.190;6.820;2023-11-21T14:34:00;62.83;;;32.80;;
10275;SDS011;5183;51.190;6.820;2023-11-21T14:36:28;47.93;;;26.90;;
10275;SDS011;5183;51.190;6.820;2023-11-21T14:38:55;49.70;;;25.77;;
10275;SDS011;5183;51.190;6.820;2023-11-21T14:41:22;45.03;;;22.20;;
10275;SDS011;5183;51.190;6.820;2023-11-21T14:43:52;44.23;;;23.67;;